Time,TemperatureF,DewpointF,PressureIn,WindDirection,WindDirectionDegrees,WindSpeedMPH,WindSpeedGustMPH,Humidity,HourlyPrecipIn,Conditions,Clouds,dailyrainin,SoftwareType,DateUTC
2013-02-04 00:01:00,22.6,15.0,29.77,NE,50,0.0,-999.0,74,-99.99,,,0.00,weatherlink.com 1.10,2013-02-04 05:01:00,
2013-02-04 00:16:00,22.5,16.0,29.77,NE,47,0.0,-999.0,76,-99.99,,,0.00,weatherlink.com 1.10,2013-02-04 05:16:00,
2013-02-04 00:33:00,22.5,17.0,29.77,NE,47,0.0,-999.0,78,-99.99,,,0.00,weatherlink.com 1.10,2013-02-04 05:33:00,
2013-02-04 00:46:00,22.5,17.0,29.77,NE,47,0.0,-999.0,79,-99.99,,,0.00,weatherlink.com 1.10,2013-02-04 05:46:00,
2013-02-04 01:01:00,22.2,17.0,29.77,NE,47,0.0,-999.0,79,-99.99,,,0.00,weatherlink.com 1.10,2013-02-04 06:01:00,
2013-02-04 01:16:00,22.1,17.0,29.77,NE,47,0.0,-999.0,80,-99.99,,,0.00,weatherlink.com 1.10,2013-02-04 06:16:00,
2013-02-04 01:31:00,22.0,17.0,29.78,ENE,58,0.0,-999.0,81,-99.99,,,0.00,weatherlink.com 1.10,2013-02-04 06:31:00,
2013-02-04 01:46:00,22.1,17.0,29.78,NE,43,0.0,-999.0,82,-99.99,,,0.00,weatherlink.com 1.10,2013-02-04 06:46:00,
2013-02-04 02:01:00,22.2,18.0,29.78,NE,39,2.0,-999.0,83,-99.99,,,0.00,weatherlink.com 1.10,2013-02-04 07:01:00,
2013-02-04 02:16:00,22.0,18.0,29.78,ENE,63,2.0,-999.0,83,-99.99,,,0.00,weatherlink.com 1.10,2013-02-04 07:16:00,
2013-02-04 02:31:00,22.0,17.0,29.78,ENE,57,1.0,-999.0,82,-99.99,,,0.00,weatherlink.com 1.10,2013-02-04 07:31:00,
2013-02-04 02:48:00,21.9,17.0,29.78,NE,46,7.0,-999.0,81,-99.99,,,0.00,weatherlink.com 1.10,2013-02-04 07:48:00,
2013-02-04 03:02:00,22.1,16.0,29.78,NE,50,5.0,-999.0,77,-99.99,,,0.00,weatherlink.com 1.10,2013-02-04 08:02:00,
2013-02-04 03:17:00,22.1,16.0,29.78,ENE,67,7.0,-999.0,76,-99.99,,,0.00,weatherlink.com 1.10,2013-02-04 08:17:00,
2013-02-04 03:32:00,22.0,16.0,29.79,ENE,74,2.0,-999.0,76,-99.99,,,0.00,weatherlink.com 1.10,2013-02-04 08:32:00,
2013-02-04 03:47:00,22.0,16.0,29.79,NE,44,4.0,-999.0,76,-99.99,,,0.00,weatherlink.com 1.10,2013-02-04 08:47:00,
2013-02-04 04:02:00,21.7,15.0,29.80,ENE,65,4.0,-999.0,75,-99.99,,,0.00,weatherlink.com 1.10,2013-02-04 09:02:00,
2013-02-04 04:17:00,21.6,15.0,29.80,ESE,113,2.0,-999.0,74,-99.99,,,0.00,weatherlink.com 1.10,2013-02-04 09:17:00,
2013-02-04 04:33:00,21.3,14.0,29.80,ENE,59,0.0,-999.0,73,-99.99,,,0.00,weatherlink.com 1.10,2013-02-04 09:33:00,
2013-02-04 04:47:00,21.1,14.0,29.81,NNE,29,5.0,-999.0,73,-99.99,,,0.00,weatherlink.com 1.10,2013-02-04 09:47:00,
2013-02-04 05:03:00,20.8,13.0,29.81,East,81,3.0,-999.0,73,-99.99,,,0.00,weatherlink.com 1.10,2013-02-04 10:03:00,
2013-02-04 05:18:00,20.6,13.0,29.81,NNW,343,1.0,-999.0,73,-99.99,,,0.00,weatherlink.com 1.10,2013-02-04 10:18:00,
2013-02-04 05:32:00,20.4,13.0,29.82,NNE,22,0.0,-999.0,73,-99.99,,,0.00,weatherlink.com 1.10,2013-02-04 10:32:00,
2013-02-04 05:47:00,20.2,13.0,29.82,NNE,26,5.0,-999.0,73,-99.99,,,0.00,weatherlink.com 1.10,2013-02-04 10:47:00,
2013-02-04 06:02:00,20.2,13.0,29.83,NNE,19,0.0,-999.0,72,-99.99,,,0.00,weatherlink.com 1.10,2013-02-04 11:02:00,
2013-02-04 06:17:00,20.0,12.0,29.83,NE,38,1.0,-999.0,72,-99.99,,,0.00,weatherlink.com 1.10,2013-02-04 11:17:00,
2013-02-04 06:32:00,20.0,12.0,29.84,NE,44,2.0,-999.0,72,-99.99,,,0.00,weatherlink.com 1.10,2013-02-04 11:32:00,
2013-02-04 06:47:00,19.8,12.0,29.85,NE,56,1.0,-999.0,73,-99.99,,,0.00,weatherlink.com 1.10,2013-02-04 11:47:00,
2013-02-04 07:02:00,19.8,12.0,29.85,NNE,32,2.0,-999.0,73,-99.99,,,0.00,weatherlink.com 1.10,2013-02-04 12:02:00,
2013-02-04 07:19:00,19.7,12.0,29.85,ENE,61,3.0,-999.0,73,-99.99,,,0.00,weatherlink.com 1.10,2013-02-04 12:19:00,
2013-02-04 07:33:00,19.6,13.0,29.85,ENE,58,3.0,-999.0,74,-99.99,,,0.00,weatherlink.com 1.10,2013-02-04 12:33:00,
2013-02-04 07:49:00,19.8,12.0,29.86,East,81,1.0,-999.0,73,-99.99,,,0.00,weatherlink.com 1.10,2013-02-04 12:49:00,
2013-02-04 08:03:00,19.9,13.0,29.86,NNW,329,0.0,-999.0,74,-99.99,,,0.00,weatherlink.com 1.10,2013-02-04 13:03:00,
2013-02-04 08:18:00,19.8,13.0,29.86,NNE,33,0.0,-999.0,74,-99.99,,,0.00,weatherlink.com 1.10,2013-02-04 13:18:00,
2013-02-04 08:34:00,19.9,14.0,29.87,NNE,24,1.0,-999.0,76,-99.99,,,0.00,weatherlink.com 1.10,2013-02-04 13:34:00,
2013-02-04 08:49:00,20.4,14.0,29.87,NNE,28,5.0,-999.0,77,-99.99,,,0.00,weatherlink.com 1.10,2013-02-04 13:49:00,
2013-02-04 09:03:00,21.0,15.0,29.87,ENE,59,3.0,-999.0,76,-99.99,,,0.00,weatherlink.com 1.10,2013-02-04 14:03:00,
2013-02-04 09:18:00,21.4,15.0,29.87,NE,38,1.0,-999.0,75,-99.99,,,0.00,weatherlink.com 1.10,2013-02-04 14:18:00,
2013-02-04 09:34:00,21.6,15.0,29.86,East,80,3.0,-999.0,74,-99.99,,,0.00,weatherlink.com 1.10,2013-02-04 14:34:00,
2013-02-04 09:49:00,23.1,14.0,29.86,NE,34,6.0,-999.0,69,-99.99,,,0.00,weatherlink.com 1.10,2013-02-04 14:49:00,
2013-02-04 10:04:00,22.8,12.0,29.86,NE,35,3.0,-999.0,64,-99.99,,,0.00,weatherlink.com 1.10,2013-02-04 15:04:00,
2013-02-04 10:18:00,23.1,12.0,29.86,NE,55,7.0,-999.0,63,-99.99,,,0.00,weatherlink.com 1.10,2013-02-04 15:18:00,
2013-02-04 10:35:00,23.3,10.0,29.86,NNE,32,2.0,-999.0,58,-99.99,,,0.00,weatherlink.com 1.10,2013-02-04 15:35:00,
2013-02-04 10:48:00,23.1,10.0,29.86,East,101,6.0,-999.0,57,-99.99,,,0.00,weatherlink.com 1.10,2013-02-04 15:48:00,
2013-02-04 11:03:00,23.0,10.0,29.86,North,5,5.0,-999.0,59,-99.99,,,0.00,weatherlink.com 1.10,2013-02-04 16:03:00,
2013-02-04 11:19:00,23.5,11.0,29.86,ENE,66,4.0,-999.0,59,-99.99,,,0.00,weatherlink.com 1.10,2013-02-04 16:19:00,
2013-02-04 11:34:00,25.1,12.0,29.85,ESE,107,2.0,-999.0,57,-99.99,,,0.00,weatherlink.com 1.10,2013-02-04 16:34:00,
2013-02-04 11:49:00,24.2,12.0,29.85,North,360,8.0,-999.0,59,-99.99,,,0.00,weatherlink.com 1.10,2013-02-04 16:49:00,
2013-02-04 12:04:00,23.8,12.0,29.85,ENE,62,4.0,-999.0,62,-99.99,,,0.00,weatherlink.com 1.10,2013-02-04 17:04:00,
2013-02-04 12:20:00,22.0,16.0,29.85,East,89,6.0,-999.0,77,-99.99,,,0.00,weatherlink.com 1.10,2013-02-04 17:20:00,
2013-02-04 12:35:00,21.0,16.0,29.86,NNE,33,2.0,-999.0,82,-99.99,,,0.00,weatherlink.com 1.10,2013-02-04 17:35:00,
2013-02-04 12:50:00,21.3,16.0,29.86,ENE,66,0.0,-999.0,81,-99.99,,,0.00,weatherlink.com 1.10,2013-02-04 17:50:00,
2013-02-04 13:04:00,22.8,17.0,29.86,North,360,5.0,-999.0,77,-99.99,,,0.00,weatherlink.com 1.10,2013-02-04 18:04:00,
2013-02-04 13:19:00,23.6,15.0,29.85,East,80,2.0,-999.0,71,-99.99,,,0.00,weatherlink.com 1.10,2013-02-04 18:19:00,
2013-02-04 13:39:00,24.1,15.0,29.85,NE,41,4.0,-999.0,67,-99.99,,,0.00,weatherlink.com 1.10,2013-02-04 18:39:00,
2013-02-04 13:49:00,24.7,12.0,29.86,NE,40,5.0,-999.0,60,-99.99,,,0.00,weatherlink.com 1.10,2013-02-04 18:49:00,
2013-02-04 14:05:00,23.7,11.0,29.85,North,355,6.0,-999.0,59,-99.99,,,0.00,weatherlink.com 1.10,2013-02-04 19:05:00,
2013-02-04 14:20:00,24.0,11.0,29.86,NNE,32,6.0,-999.0,58,-99.99,,,0.00,weatherlink.com 1.10,2013-02-04 19:20:00,
2013-02-04 14:34:00,24.3,11.0,29.86,NNE,22,4.0,-999.0,56,-99.99,,,0.00,weatherlink.com 1.10,2013-02-04 19:34:00,
2013-02-04 14:49:00,24.2,10.0,29.85,NNE,32,7.0,-999.0,56,-99.99,,,0.00,weatherlink.com 1.10,2013-02-04 19:49:00,
2013-02-04 15:05:00,24.5,10.0,29.86,NNE,22,15.0,-999.0,54,-99.99,,,0.00,weatherlink.com 1.10,2013-02-04 20:05:00,
2013-02-04 15:20:00,24.3,11.0,29.86,NNE,13,5.0,-999.0,56,-99.99,,,0.00,weatherlink.com 1.10,2013-02-04 20:20:00,
2013-02-04 15:34:00,24.8,11.0,29.86,NNW,335,2.0,-999.0,55,-99.99,,,0.00,weatherlink.com 1.10,2013-02-04 20:34:00,
2013-02-04 15:49:00,24.4,11.0,29.87,NNE,29,1.0,-999.0,57,-99.99,,,0.00,weatherlink.com 1.10,2013-02-04 20:49:00,
2013-02-04 16:05:00,23.7,11.0,29.87,East,88,11.0,-999.0,59,-99.99,,,0.00,weatherlink.com 1.10,2013-02-04 21:05:00,
2013-02-04 16:19:00,23.1,11.0,29.87,ENE,59,8.0,-999.0,61,-99.99,,,0.00,weatherlink.com 1.10,2013-02-04 21:19:00,
2013-02-04 16:34:00,22.6,11.0,29.87,NE,55,6.0,-999.0,61,-99.99,,,0.00,weatherlink.com 1.10,2013-02-04 21:34:00,
2013-02-04 16:50:00,22.3,11.0,29.88,NNE,17,2.0,-999.0,61,-99.99,,,0.00,weatherlink.com 1.10,2013-02-04 21:50:00,
2013-02-04 17:04:00,21.8,11.0,29.89,ENE,61,3.0,-999.0,62,-99.99,,,0.00,weatherlink.com 1.10,2013-02-04 22:04:00,
2013-02-04 17:19:00,21.3,11.0,29.89,NNE,21,7.0,-999.0,64,-99.99,,,0.00,weatherlink.com 1.10,2013-02-04 22:19:00,
2013-02-04 17:34:00,20.8,11.0,29.90,NE,36,3.0,-999.0,65,-99.99,,,0.00,weatherlink.com 1.10,2013-02-04 22:34:00,
2013-02-04 17:49:00,20.7,11.0,29.90,NNE,21,0.0,-999.0,65,-99.99,,,0.00,weatherlink.com 1.10,2013-02-04 22:49:00,
2013-02-04 18:05:00,20.2,11.0,29.91,NNE,24,0.0,-999.0,67,-99.99,,,0.00,weatherlink.com 1.10,2013-02-04 23:05:00,
2013-02-04 18:21:00,19.7,11.0,29.91,North,11,5.0,-999.0,68,-99.99,,,0.00,weatherlink.com 1.10,2013-02-04 23:21:00,
2013-02-04 18:36:00,19.4,11.0,29.92,North,351,0.0,-999.0,69,-99.99,,,0.00,weatherlink.com 1.10,2013-02-04 23:36:00,
2013-02-04 18:51:00,18.9,11.0,29.92,NNE,15,0.0,-999.0,70,-99.99,,,0.00,weatherlink.com 1.10,2013-02-04 23:51:00,
2013-02-04 19:05:00,18.9,11.0,29.93,NNW,334,0.0,-999.0,71,-99.99,,,0.00,weatherlink.com 1.10,2013-02-05 00:05:00,
2013-02-04 19:21:00,18.8,11.0,29.93,North,351,0.0,-999.0,71,-99.99,,,0.00,weatherlink.com 1.10,2013-02-05 00:21:00,
2013-02-04 19:35:00,18.6,11.0,29.94,NNW,347,0.0,-999.0,71,-99.99,,,0.00,weatherlink.com 1.10,2013-02-05 00:35:00,
2013-02-04 19:51:00,18.1,11.0,29.94,NW,309,1.0,-999.0,72,-99.99,,,0.00,weatherlink.com 1.10,2013-02-05 00:51:00,
2013-02-04 20:05:00,17.8,11.0,29.94,NW,309,1.0,-999.0,73,-99.99,,,0.00,weatherlink.com 1.10,2013-02-05 01:05:00,
2013-02-04 20:20:00,17.7,11.0,29.94,NW,309,0.0,-999.0,74,-99.99,,,0.00,weatherlink.com 1.10,2013-02-05 01:20:00,
2013-02-04 20:36:00,17.7,11.0,29.94,NW,309,0.0,-999.0,75,-99.99,,,0.00,weatherlink.com 1.10,2013-02-05 01:36:00,
2013-02-04 20:51:00,17.3,11.0,29.94,NW,309,0.0,-999.0,75,-99.99,,,0.00,weatherlink.com 1.10,2013-02-05 01:51:00,
2013-02-04 21:05:00,16.9,11.0,29.94,NW,309,0.0,-999.0,76,-99.99,,,0.00,weatherlink.com 1.10,2013-02-05 02:05:00,
2013-02-04 21:21:00,16.5,10.0,29.94,NW,309,0.0,-999.0,76,-99.99,,,0.00,weatherlink.com 1.10,2013-02-05 02:21:00,
2013-02-04 21:35:00,16.3,10.0,29.94,NW,309,0.0,-999.0,77,-99.99,,,0.00,weatherlink.com 1.10,2013-02-05 02:35:00,
2013-02-04 21:50:00,16.2,11.0,29.94,NW,309,0.0,-999.0,78,-99.99,,,0.00,weatherlink.com 1.10,2013-02-05 02:50:00,
2013-02-04 22:05:00,15.9,10.0,29.94,NW,309,0.0,-999.0,77,-99.99,,,0.00,weatherlink.com 1.10,2013-02-05 03:05:00,
2013-02-04 22:22:00,15.2,10.0,29.95,NW,309,0.0,-999.0,79,-99.99,,,0.00,weatherlink.com 1.10,2013-02-05 03:22:00,
2013-02-04 22:36:00,14.5,9.0,29.95,NW,309,0.0,-999.0,80,-99.99,,,0.00,weatherlink.com 1.10,2013-02-05 03:36:00,
2013-02-04 22:50:00,14.6,10.0,29.95,NW,309,0.0,-999.0,81,-99.99,,,0.00,weatherlink.com 1.10,2013-02-05 03:50:00,
2013-02-04 23:06:00,14.6,10.0,29.95,NW,309,0.0,-999.0,82,-99.99,,,0.00,weatherlink.com 1.10,2013-02-05 04:06:00,
2013-02-04 23:21:00,14.9,11.0,29.95,NW,309,0.0,-999.0,83,-99.99,,,0.00,weatherlink.com 1.10,2013-02-05 04:21:00,
2013-02-04 23:37:00,15.7,11.0,29.95,NW,309,0.0,-999.0,83,-99.99,,,0.00,weatherlink.com 1.10,2013-02-05 04:37:00,
2013-02-04 23:52:00,16.4,12.0,29.95,NW,309,0.0,-999.0,82,-99.99,,,0.00,weatherlink.com 1.10,2013-02-05 04:52:00,